Terminal Aerodrome Forecast
Issued by NWS Austin/San Antonio, TX

Home | Current Version | Previous Version | Text Only | Print | Product List | Glossary On
Versions: 1 2 3 4 5 6 7 8 9 10 11 12 13 14 15 16 17 18 19
000
FTUS44 KEWX 040520
TAFAUS
TAF
KAUS 040520Z 0406/0512 14007KT P6SM FEW200
     FM040900 16005KT P6SM BKN012
      TEMPO 0411/0415 BKN009
     FM041700 16010KT P6SM BKN050
     FM050200 15006KT P6SM SCT100
     FM051000 17004KT P6SM BKN015=

USA.gov is the U.S. government's official web portal to all federal, state and local government web resources and services.